Time;durP1;ratioP1;P1;durP2;ratioP2;P2;SDS_P1;SDS_P2;PMS_P1;PMS_P2;Temp;Humidity;BMP_temperature;BMP_pressure;BME280_temperature;BME280_humidity;BME280_pressure;Samples;Min_cycle;Max_cycle;Signal;HPM_P1;HPM_P2
2023/05/18 00:00:05;;;;;;;3.40;1.75;;;9.00;99.90;;;;;;5216771;28;20029;-72
2023/05/18 00:02:38;;;;;;;2.58;1.60;;;8.90;99.90;;;;;;5178252;28;20056;-70
2023/05/18 00:05:16;;;;;;;2.03;1.73;;;8.90;99.90;;;;;;5167700;28;20053;-72
2023/05/18 00:07:48;;;;;;;2.67;1.90;;;8.90;99.90;;;;;;5192895;28;20038;-74
2023/05/18 00:10:19;;;;;;;1.90;1.80;;;8.90;99.90;;;;;;5193582;28;20041;-72
2023/05/18 00:12:51;;;;;;;3.22;1.98;;;8.90;99.90;;;;;;5216857;28;20032;-70
2023/05/18 00:15:22;;;;;;;1.88;1.42;;;8.90;99.90;;;;;;5179496;28;20035;-72
2023/05/18 00:18:00;;;;;;;4.07;1.67;;;8.90;99.90;;;;;;5182326;28;20029;-77
2023/05/18 00:20:33;;;;;;;5.18;1.83;;;9.00;99.90;;;;;;5188548;28;20040;-72
2023/05/18 00:23:09;;;;;;;1.83;1.42;;;9.00;99.90;;;;;;5177068;28;20044;-71
2023/05/18 00:25:43;;;;;;;2.22;1.77;;;8.90;99.90;;;;;;5212573;28;20039;-72
2023/05/18 00:28:19;;;;;;;3.50;2.33;;;9.00;99.90;;;;;;5190939;28;20041;-70
2023/05/18 00:30:54;;;;;;;2.47;1.95;;;9.00;92.40;;;;;;5201180;28;20528;-76
2023/05/18 00:33:25;;;;;;;4.00;1.80;;;9.00;33.30;;;;;;5191327;28;20124;-74
2023/05/18 00:35:58;;;;;;;3.22;2.00;;;9.00;90.30;;;;;;5195099;28;20038;-73
2023/05/18 00:38:29;;;;;;;2.90;1.80;;;9.00;85.50;;;;;;5193977;28;20508;-69
2023/05/18 00:41:03;;;;;;;1.23;1.13;;;9.00;48.00;;;;;;5193051;28;20534;-71
2023/05/18 00:43:45;;;;;;;2.00;1.80;;;9.00;71.00;;;;;;5212543;28;20028;-69
2023/05/18 00:46:20;;;;;;;4.63;1.52;;;9.00;94.20;;;;;;5192475;28;20040;-72
2023/05/18 00:48:53;;;;;;;9.80;2.05;;;9.00;99.90;;;;;;5209740;28;20175;-74
2023/05/18 00:51:28;;;;;;;1.48;1.38;;;9.10;68.60;;;;;;5211069;28;20047;-73
2023/05/18 00:54:00;;;;;;;;;;;9.10;56.80;;;;;;5186540;28;20032;-70
2023/05/18 00:56:34;;;;;;;6.82;2.10;;;9.10;47.40;;;;;;5192457;28;19913;-71
2023/05/18 00:59:08;;;;;;;2.25;2.05;;;9.10;62.40;;;;;;5177538;28;20036;-73
2023/05/18 01:04:24;;;;;;;3.60;1.77;;;9.10;16.40;;;;;;5152471;26;20044;-71
2023/05/18 01:06:57;;;;;;;2.25;2.05;;;9.10;6.00;;;;;;5149430;28;20179;-72
2023/05/18 01:09:34;;;;;;;4.35;2.58;;;9.10;23.80;;;;;;5190969;28;20021;-71
2023/05/18 01:12:23;;;;;;;3.33;1.67;;;9.10;22.10;;;;;;5171407;28;20052;-72
2023/05/18 01:15:09;;;;;;;6.38;3.13;;;9.10;26.00;;;;;;5188758;28;20025;-73
2023/05/18 01:17:52;;;;;;;1.55;1.45;;;9.10;38.10;;;;;;5159265;28;20605;-71
2023/05/18 01:20:37;;;;;;;3.38;1.80;;;9.10;59.80;;;;;;5165874;28;20328;-70
2023/05/18 01:23:28;;;;;;;3.88;2.20;;;9.00;39.80;;;;;;5153532;28;20040;-73
2023/05/18 01:26:44;;;;;;;2.55;2.33;;;9.00;90.20;;;;;;5154433;28;20037;-73
2023/05/18 01:29:19;;;;;;;2.35;1.60;;;9.00;41.80;;;;;;5093077;29;20039;-70
2023/05/18 01:31:56;;;;;;;3.15;1.80;;;9.10;22.70;;;;;;5105477;28;20039;-73
2023/05/18 01:34:30;;;;;;;1.60;1.50;;;9.10;1.60;;;;;;5076002;29;20546;-72
2023/05/18 01:37:03;;;;;;;2.92;1.65;;;9.10;12.00;;;;;;5106304;28;20558;-74
2023/05/18 01:39:35;;;;;;;4.38;2.15;;;9.00;1.00;;;;;;5112626;28;20739;-72
2023/05/18 01:42:14;;;;;;;2.75;2.08;;;9.00;1.00;;;;;;5106864;28;20039;-74
2023/05/18 01:44:52;;;;;;;2.17;1.98;;;9.00;1.00;;;;;;5125525;28;20039;-69
2023/05/18 01:47:30;;;;;;;2.63;1.83;;;9.10;1.00;;;;;;5103396;28;20038;-71
2023/05/18 01:50:27;;;;;;;2.60;1.50;;;9.10;1.00;;;;;;5123771;28;20054;-71
2023/05/18 01:53:13;;;;;;;3.20;2.22;;;9.00;6.30;;;;;;5109161;28;20054;-74
2023/05/18 01:55:47;;;;;;;1.77;1.67;;;9.00;22.80;;;;;;5127344;28;20540;-69
2023/05/18 01:58:20;;;;;;;2.97;1.77;;;9.00;12.00;;;;;;5091357;29;20039;-74
2023/05/18 02:00:55;;;;;;;2.42;1.55;;;9.00;16.40;;;;;;5121020;28;20039;-72
2023/05/18 02:03:29;;;;;;;;;;;9.00;19.60;;;;;;5148102;28;20045;-70
2023/05/18 02:06:00;;;;;;;2.00;1.80;;;9.00;1.00;;;;;;5163921;28;20324;-68
2023/05/18 02:08:34;;;;;;;1.80;1.45;;;9.00;1.00;;;;;;5158100;28;20055;-73
2023/05/18 02:11:08;;;;;;;4.97;2.63;;;9.00;1.00;;;;;;5174001;28;20244;-72
2023/05/18 02:13:39;;;;;;;2.58;2.38;;;9.00;1.00;;;;;;5173514;28;20073;-71
2023/05/18 02:16:14;;;;;;;2.13;1.92;;;9.00;25.10;;;;;;5154167;28;20045;-70
2023/05/18 02:18:51;;;;;;;1.85;1.75;;;9.00;1.00;;;;;;5173753;28;20036;-74
2023/05/18 02:21:25;;;;;;;3.58;1.63;;;9.00;1.00;;;;;;5173109;28;20025;-73
2023/05/18 02:23:59;;;;;;;2.55;1.83;;;8.90;10.90;;;;;;5169469;28;20037;-74
2023/05/18 02:26:31;;;;;;;3.22;1.52;;;8.90;1.00;;;;;;5170368;28;20038;-72
2023/05/18 02:29:10;;;;;;;2.08;1.80;;;8.90;1.00;;;;;;5173546;28;20043;-73
2023/05/18 02:31:45;;;;;;;3.42;2.15;;;9.00;1.00;;;;;;5186969;28;20093;-69
2023/05/18 02:34:23;;;;;;;3.50;1.50;;;9.00;1.00;;;;;;5152381;28;20422;-72
2023/05/18 02:37:02;;;;;;;2.83;2.00;;;9.00;1.00;;;;;;5167615;28;20044;-73
2023/05/18 02:39:33;;;;;;;3.67;1.58;;;9.00;1.00;;;;;;5180123;28;20044;-68
2023/05/18 02:42:07;;;;;;;2.65;2.08;;;9.00;1.00;;;;;;5191659;28;20480;-71
2023/05/18 02:44:41;;;;;;;2.80;1.63;;;9.00;1.00;;;;;;5158439;28;20167;-70
2023/05/18 02:47:15;;;;;;;5.35;4.28;;;9.00;1.00;;;;;;5169924;28;20040;-70
2023/05/18 02:49:46;;;;;;;1.38;1.27;;;9.00;1.00;;;;;;5157200;28;20469;-72
2023/05/18 02:52:17;;;;;;;2.92;2.45;;;9.00;1.00;;;;;;5150775;28;20041;-73
2023/05/18 02:54:53;;;;;;;2.45;2.25;;;9.00;1.00;;;;;;5159347;28;20044;-72
2023/05/18 02:57:25;;;;;;;1.80;1.55;;;9.00;1.00;;;;;;5154664;28;20037;-68
2023/05/18 02:59:57;;;;;;;2.10;1.92;;;8.90;1.00;;;;;;5172961;28;20034;-71
2023/05/18 03:02:31;;;;;;;2.33;2.13;;;9.00;1.00;;;;;;5168829;28;20052;-70
2023/05/18 03:05:04;;;;;;;1.60;1.48;;;8.90;1.00;;;;;;5160930;28;20064;-70
2023/05/18 03:07:36;;;;;;;4.32;1.33;;;8.90;1.00;;;;;;5153698;28;20105;-71
2023/05/18 03:10:09;;;;;;;3.50;2.08;;;9.00;1.00;;;;;;5182623;28;20213;-72
2023/05/18 03:12:41;;;;;;;2.00;1.58;;;9.00;1.00;;;;;;5156161;28;20040;-74
2023/05/18 03:15:19;;;;;;;1.92;1.55;;;9.00;1.00;;;;;;5183584;28;20131;-73
2023/05/18 03:17:50;;;;;;;3.75;1.88;;;9.00;1.00;;;;;;5188871;28;20047;-69
2023/05/18 03:20:24;;;;;;;3.17;2.15;;;9.00;1.00;;;;;;5188471;28;20034;-70
2023/05/18 03:22:58;;;;;;;1.73;1.63;;;9.00;1.00;;;;;;5171958;28;20044;-71
2023/05/18 03:25:31;;;;;;;1.83;1.58;;;9.00;1.00;;;;;;5171356;28;20262;-69
2023/05/18 03:28:06;;;;;;;2.55;1.60;;;9.00;1.00;;;;;;5187260;28;20025;-70
2023/05/18 03:30:37;;;;;;;2.03;1.55;;;9.00;1.00;;;;;;5167688;28;20033;-71
2023/05/18 03:33:12;;;;;;;2.47;2.10;;;9.00;1.00;;;;;;5171219;28;20060;-70
2023/05/18 03:35:43;;;;;;;1.77;1.65;;;9.00;1.00;;;;;;5155494;28;20043;-72
2023/05/18 03:38:14;;;;;;;2.83;1.88;;;9.00;1.00;;;;;;5171481;28;20025;-72
2023/05/18 03:40:52;;;;;;;1.60;1.38;;;8.90;1.00;;;;;;5190226;28;20036;-73
2023/05/18 03:43:24;;;;;;;3.13;1.75;;;8.90;1.00;;;;;;5155766;28;20068;-69
2023/05/18 03:45:58;;;;;;;4.50;1.75;;;8.90;1.00;;;;;;5154242;28;20026;-74
2023/05/18 03:48:34;;;;;;;4.05;1.85;;;9.00;1.00;;;;;;5188496;28;20055;-73
2023/05/18 03:51:08;;;;;;;1.40;1.30;;;8.90;1.00;;;;;;5188233;28;20067;-71
2023/05/18 03:53:41;;;;;;;2.15;1.80;;;8.90;1.00;;;;;;5188053;28;20046;-73
2023/05/18 03:56:15;;;;;;;1.55;1.45;;;8.90;1.00;;;;;;5156001;28;20021;-71
2023/05/18 03:58:46;;;;;;;;;;;8.90;1.00;;;;;;5163107;28;20029;-71
2023/05/18 04:01:24;;;;;;;1.60;1.50;;;8.90;1.00;;;;;;5169560;28;19917;-71
2023/05/18 04:03:58;;;;;;;4.05;1.63;;;8.90;1.00;;;;;;5175012;28;20475;-71
2023/05/18 04:06:30;;;;;;;;;;;8.90;1.00;;;;;;5165384;28;20053;-73
2023/05/18 04:09:01;;;;;;;1.73;1.63;;;9.00;1.00;;;;;;5192562;28;19913;-71
2023/05/18 04:11:37;;;;;;;1.30;1.20;;;9.00;1.00;;;;;;5159041;28;20034;-72
2023/05/18 04:14:16;;;;;;;1.98;1.55;;;8.90;1.00;;;;;;5175141;28;20043;-74
2023/05/18 04:16:48;;;;;;;2.90;1.15;;;9.00;1.00;;;;;;5174609;28;20037;-73
2023/05/18 04:19:22;;;;;;;1.48;1.38;;;9.00;1.00;;;;;;5171272;28;20041;-73
2023/05/18 04:21:54;;;;;;;1.58;1.48;;;9.10;1.00;;;;;;5174784;28;20535;-72
2023/05/18 04:24:31;;;;;;;1.77;1.42;;;9.10;1.00;;;;;;5173880;28;20041;-70
2023/05/18 04:27:03;;;;;;;2.20;1.60;;;9.10;1.00;;;;;;5158498;28;20599;-73
2023/05/18 04:29:39;;;;;;;1.80;1.20;;;9.10;1.00;;;;;;5173122;28;20027;-69
2023/05/18 04:32:11;;;;;;;2.22;1.90;;;9.10;1.00;;;;;;5187477;28;20567;-74
2023/05/18 04:34:48;;;;;;;1.98;1.55;;;9.10;1.00;;;;;;5174799;28;20038;-74
2023/05/18 04:37:19;;;;;;;2.17;1.33;;;9.10;1.00;;;;;;5175223;28;20060;-71
2023/05/18 04:39:52;;;;;;;4.05;1.33;;;9.00;1.00;;;;;;5190307;28;20360;-72
2023/05/18 04:42:30;;;;;;;3.78;2.60;;;9.00;1.00;;;;;;5191855;28;20558;-73
2023/05/18 04:45:04;;;;;;;4.60;1.55;;;9.00;1.00;;;;;;5189915;28;20227;-73
2023/05/18 04:47:37;;;;;;;1.67;1.55;;;9.10;1.00;;;;;;5163434;28;20033;-74
2023/05/18 04:50:14;;;;;;;6.47;1.30;;;9.10;1.00;;;;;;5175254;28;20033;-73
2023/05/18 04:52:47;;;;;;;7.68;1.52;;;9.10;1.00;;;;;;5159242;28;20037;-71
2023/05/18 04:55:26;;;;;;;1.45;1.35;;;9.10;1.00;;;;;;5158992;28;20365;-73
2023/05/18 04:58:02;;;;;;;1.73;1.38;;;9.10;1.00;;;;;;5160451;28;20038;-74
2023/05/18 05:00:36;;;;;;;1.50;1.40;;;9.10;1.00;;;;;;5174523;28;20041;-73
2023/05/18 05:03:10;;;;;;;2.75;1.48;;;9.10;1.00;;;;;;5172007;28;20026;-75
2023/05/18 05:05:45;;;;;;;2.15;1.50;;;9.10;1.00;;;;;;5168721;28;20579;-73
2023/05/18 05:08:17;;;;;;;7.30;1.60;;;9.10;1.00;;;;;;5179223;28;20253;-73
2023/05/18 05:10:51;;;;;;;4.82;1.63;;;9.10;1.00;;;;;;5190725;28;20213;-73
2023/05/18 05:13:22;;;;;;;;;;;9.20;1.00;;;;;;5157684;28;20045;-72
2023/05/18 05:15:55;;;;;;;4.38;1.23;;;9.20;1.00;;;;;;5190048;28;20386;-74
2023/05/18 05:18:29;;;;;;;2.30;1.10;;;9.20;1.00;;;;;;5170697;28;20037;-70
2023/05/18 05:21:00;;;;;;;6.03;1.23;;;9.20;1.00;;;;;;5157201;28;20025;-70
2023/05/18 05:23:31;;;;;;;2.22;1.63;;;9.30;1.00;;;;;;5166859;28;20596;-72
2023/05/18 05:26:05;;;;;;;1.40;1.15;;;9.30;1.00;;;;;;5198878;28;20040;-74
2023/05/18 05:28:37;;;;;;;2.67;1.50;;;9.40;1.00;;;;;;5172308;28;20550;-69
2023/05/18 05:31:13;;;;;;;3.78;1.50;;;9.40;1.00;;;;;;5187146;28;20045;-71
2023/05/18 05:33:47;;;;;;;4.53;1.75;;;9.30;1.00;;;;;;5157905;28;20056;-72
2023/05/18 05:36:23;;;;;;;1.50;1.33;;;9.40;1.00;;;;;;5172402;28;20063;-73
2023/05/18 05:38:54;;;;;;;3.15;2.20;;;9.40;1.00;;;;;;5172213;28;20052;-75
2023/05/18 05:41:26;;;;;;;1.48;1.30;;;9.40;1.00;;;;;;5174972;28;20048;-71
2023/05/18 05:43:59;;;;;;;1.40;0.90;;;9.50;1.00;;;;;;5174149;28;20033;-73
2023/05/18 05:46:36;;;;;;;3.25;2.50;;;9.60;1.00;;;;;;5173275;28;20041;-73
2023/05/18 05:49:07;;;;;;;1.98;1.60;;;9.60;1.00;;;;;;5168734;28;20029;-72
2023/05/18 05:51:38;;;;;;;1.67;1.38;;;9.70;1.00;;;;;;5171772;28;20025;-73
2023/05/18 05:54:16;;;;;;;3.42;1.20;;;9.70;1.00;;;;;;5157643;28;20049;-74
2023/05/18 05:56:48;;;;;;;2.33;1.23;;;9.70;1.00;;;;;;5177052;28;20583;-74
2023/05/18 05:59:21;;;;;;;3.40;1.50;;;9.70;1.00;;;;;;5172106;28;20030;-74
2023/05/18 06:01:57;;;;;;;1.88;1.48;;;9.80;1.00;;;;;;5172615;28;20036;-73
2023/05/18 06:04:31;;;;;;;3.75;2.03;;;9.70;1.00;;;;;;5178323;28;20067;-70
2023/05/18 06:07:02;;;;;;;2.72;1.70;;;9.80;1.00;;;;;;5177804;28;20374;-73
2023/05/18 06:09:34;;;;;;;1.27;1.10;;;9.80;1.00;;;;;;5188557;28;20033;-74
2023/05/18 06:12:06;;;;;;;1.38;1.10;;;9.80;1.00;;;;;;5171205;28;20044;-73
2023/05/18 06:14:37;;;;;;;2.10;1.92;;;9.80;1.00;;;;;;5151836;28;20045;-74
2023/05/18 06:17:11;;;;;;;4.68;1.42;;;9.80;1.00;;;;;;5182999;28;20030;-73
2023/05/18 06:19:42;;;;;;;1.48;1.05;;;9.80;1.00;;;;;;5191129;28;20022;-70
2023/05/18 06:22:14;;;;;;;1.40;1.30;;;9.80;1.00;;;;;;5171623;28;20100;-73
2023/05/18 06:24:50;;;;;;;3.13;1.80;;;9.80;1.00;;;;;;5188383;28;20363;-73
2023/05/18 06:27:22;;;;;;;1.48;1.15;;;9.80;1.00;;;;;;5169205;28;20033;-73
2023/05/18 06:29:55;;;;;;;1.58;1.45;;;9.80;1.00;;;;;;5169087;28;20333;-73
2023/05/18 06:32:28;;;;;;;5.43;1.43;;;9.80;1.00;;;;;;5179571;28;20246;-74
2023/05/18 06:35:03;;;;;;;2.33;2.13;;;9.80;1.00;;;;;;5168248;28;20287;-73
2023/05/18 06:37:37;;;;;;;2.92;1.50;;;9.90;1.00;;;;;;5183810;28;20050;-74
2023/05/18 06:40:12;;;;;;;1.15;1.05;;;9.70;1.00;;;;;;5169344;28;20033;-73
2023/05/18 06:42:48;;;;;;;3.00;1.65;;;9.60;1.00;;;;;;5169887;28;20021;-74
2023/05/18 06:45:20;;;;;;;3.88;1.33;;;9.70;1.00;;;;;;5164208;28;20036;-71
2023/05/18 06:47:53;;;;;;;4.43;1.58;;;9.70;1.00;;;;;;5164934;28;20036;-72
2023/05/18 06:50:25;;;;;;;2.47;1.50;;;9.70;1.00;;;;;;5178361;28;20021;-74
2023/05/18 06:52:58;;;;;;;2.00;1.50;;;9.80;1.00;;;;;;5172024;28;20531;-72
2023/05/18 06:55:32;;;;;;;1.65;1.23;;;9.70;1.00;;;;;;5155188;28;20045;-73
2023/05/18 06:58:06;;;;;;;1.30;1.20;;;9.70;1.00;;;;;;5172004;28;20182;-71
2023/05/18 07:00:41;;;;;;;2.78;1.52;;;9.70;1.00;;;;;;5163558;28;20330;-73
2023/05/18 07:03:15;;;;;;;2.45;1.75;;;9.80;1.00;;;;;;5184095;28;20199;-71
2023/05/18 07:05:47;;;;;;;3.53;1.92;;;9.70;1.00;;;;;;5158396;28;20076;-72
2023/05/18 07:08:21;;;;;;;1.55;1.45;;;9.70;1.00;;;;;;5149352;28;20036;-72
2023/05/18 07:10:52;;;;;;;4.40;1.50;;;9.60;1.00;;;;;;5169171;28;20326;-76
2023/05/18 07:13:24;;;;;;;4.03;1.63;;;9.60;1.00;;;;;;5186395;28;20345;-73
2023/05/18 07:15:58;;;;;;;3.45;2.25;;;9.60;1.00;;;;;;5152336;28;20041;-74
2023/05/18 07:18:29;;;;;;;5.47;2.50;;;9.60;1.00;;;;;;5173323;28;20427;-73
2023/05/18 07:21:04;;;;;;;1.73;1.10;;;9.70;1.00;;;;;;5139078;28;20033;-73
2023/05/18 07:23:35;;;;;;;10.02;3.03;;;9.70;1.00;;;;;;5166589;28;20044;-73
2023/05/18 07:26:09;;;;;;;5.47;1.20;;;9.70;1.00;;;;;;5189696;28;20033;-73
2023/05/18 07:28:43;;;;;;;2.30;1.90;;;9.70;1.00;;;;;;5189446;28;20021;-73
2023/05/18 07:31:20;;;;;;;1.40;1.30;;;9.80;1.00;;;;;;5170223;28;20022;-74
2023/05/18 07:33:56;;;;;;;2.78;1.85;;;9.80;1.00;;;;;;5175086;28;20041;-72
2023/05/18 07:36:27;;;;;;;1.40;1.23;;;9.80;1.00;;;;;;5194176;28;20372;-72
2023/05/18 07:39:00;;;;;;;2.78;1.50;;;9.80;1.00;;;;;;5161925;28;20037;-73
2023/05/18 07:41:33;;;;;;;4.00;1.73;;;9.80;1.00;;;;;;5190579;28;20033;-73
2023/05/18 07:44:04;;;;;;;1.60;1.38;;;9.80;1.00;;;;;;5176429;28;20063;-73
2023/05/18 07:46:39;;;;;;;5.13;2.05;;;9.70;1.00;;;;;;5189119;28;20319;-73
2023/05/18 07:49:12;;;;;;;3.55;1.60;;;9.70;1.00;;;;;;5157882;28;20039;-73
2023/05/18 07:51:44;;;;;;;5.07;1.70;;;9.70;1.00;;;;;;5157846;28;20028;-73
2023/05/18 07:54:20;;;;;;;3.65;1.60;;;9.80;1.00;;;;;;5175107;28;20041;-73
2023/05/18 07:56:51;;;;;;;1.92;1.75;;;9.70;1.00;;;;;;5192502;28;20048;-73
2023/05/18 07:59:23;;;;;;;2.47;1.60;;;9.60;1.00;;;;;;5192990;28;20025;-73
2023/05/18 08:01:57;;;;;;;3.05;1.48;;;9.70;1.00;;;;;;5176899;28;20025;-76
2023/05/18 08:04:29;;;;;;;4.70;1.17;;;9.70;1.00;;;;;;5179558;28;20094;-73
2023/05/18 08:07:05;;;;;;;5.32;1.80;;;9.70;1.00;;;;;;5163753;28;20040;-74
2023/05/18 08:09:40;;;;;;;3.00;1.80;;;9.60;1.00;;;;;;5175126;28;20029;-73
2023/05/18 08:12:14;;;;;;;8.05;1.50;;;9.50;1.00;;;;;;5190622;28;20033;-73
2023/05/18 08:14:46;;;;;;;4.22;1.48;;;9.70;1.00;;;;;;5175276;28;20043;-72
2023/05/18 08:17:22;;;;;;;1.98;1.75;;;9.70;1.00;;;;;;5170961;28;20226;-72
2023/05/18 08:19:57;;;;;;;8.48;1.77;;;9.80;1.00;;;;;;5192774;28;20030;-71
2023/05/18 08:22:31;;;;;;;3.00;1.90;;;9.80;1.00;;;;;;5158373;28;20337;-72
2023/05/18 08:25:03;;;;;;;;;;;9.90;1.00;;;;;;5192657;28;20035;-73
2023/05/18 08:27:39;;;;;;;1.90;1.42;;;9.90;1.00;;;;;;5190924;28;20114;-74
2023/05/18 08:30:11;;;;;;;1.30;1.20;;;9.90;1.00;;;;;;5185303;28;20348;-74
2023/05/18 08:32:42;;;;;;;2.10;1.60;;;10.00;1.00;;;;;;5188233;28;20336;-73
2023/05/18 08:35:22;;;;;;;5.63;2.30;;;10.10;1.00;;;;;;5171789;28;20037;-74
2023/05/18 08:37:54;;;;;;;5.63;2.30;;;10.00;1.00;;;;;;5175157;28;20045;-74
2023/05/18 08:40:34;;;;;;;1.88;1.45;;;9.90;1.00;;;;;;5191034;28;20047;-73
2023/05/18 08:43:22;;;;;;;1.85;1.25;;;9.80;1.00;;;;;;5171534;28;20484;-73
2023/05/18 08:46:16;;;;;;;2.55;1.80;;;9.80;1.00;;;;;;5169308;28;20251;-73
2023/05/18 08:48:52;;;;;;;2.13;1.17;;;9.80;1.00;;;;;;5192694;28;20017;-73
2023/05/18 08:51:26;;;;;;;2.17;1.45;;;9.90;1.00;;;;;;5165344;28;20044;-73
2023/05/18 08:54:00;;;;;;;3.38;2.33;;;10.00;1.00;;;;;;5172570;28;20176;-72
2023/05/18 08:56:33;;;;;;;2.05;1.58;;;10.10;1.00;;;;;;5177220;28;20040;-73
2023/05/18 08:59:07;;;;;;;1.52;1.35;;;10.10;1.00;;;;;;5187826;28;20029;-73
2023/05/18 09:01:41;;;;;;;2.03;1.83;;;10.00;1.00;;;;;;5171069;28;20287;-73
2023/05/18 09:04:16;;;;;;;2.20;1.52;;;10.20;1.00;;;;;;5164434;28;20469;-72
2023/05/18 09:06:51;;;;;;;;;;;10.00;1.00;;;;;;5160802;28;20029;-72
2023/05/18 09:09:25;;;;;;;1.67;1.30;;;10.10;1.00;;;;;;5174876;28;19972;-72
2023/05/18 09:11:57;;;;;;;2.13;1.35;;;10.30;1.00;;;;;;5172698;28;20434;-73
2023/05/18 09:14:32;;;;;;;2.13;1.55;;;10.30;1.00;;;;;;5175201;28;20029;-72
2023/05/18 09:17:03;;;;;;;1.42;1.27;;;10.40;1.00;;;;;;5154944;28;20033;-72
2023/05/18 09:19:40;;;;;;;3.40;1.70;;;10.40;1.00;;;;;;5190714;28;20030;-73
2023/05/18 09:22:15;;;;;;;1.58;1.48;;;10.50;1.00;;;;;;5189765;28;20037;-72
2023/05/18 09:24:47;;;;;;;1.75;1.10;;;10.40;1.00;;;;;;5192462;28;20051;-72
2023/05/18 09:27:20;;;;;;;3.00;1.55;;;10.50;1.00;;;;;;5156279;28;20033;-72
2023/05/18 09:29:56;;;;;;;1.73;1.40;;;10.50;1.00;;;;;;5173906;28;20025;-72
2023/05/18 09:32:35;;;;;;;2.15;1.42;;;10.40;1.00;;;;;;5164794;28;20037;-72
2023/05/18 09:35:07;;;;;;;1.95;1.60;;;10.30;1.00;;;;;;5173467;28;20585;-74
2023/05/18 09:37:42;;;;;;;3.35;1.58;;;10.20;1.00;;;;;;5172668;28;20035;-71
2023/05/18 09:40:15;;;;;;;5.15;1.92;;;10.30;1.00;;;;;;5189084;28;20039;-73
2023/05/18 09:42:52;;;;;;;1.92;1.80;;;10.30;1.00;;;;;;5157018;28;20059;-74
2023/05/18 09:45:25;;;;;;;2.67;2.05;;;10.20;1.00;;;;;;5188360;28;20379;-72
2023/05/18 09:48:01;;;;;;;1.90;1.80;;;10.30;1.00;;;;;;5173484;28;20033;-74
2023/05/18 09:50:33;;;;;;;1.90;1.65;;;10.40;1.00;;;;;;5187218;28;20035;-71
2023/05/18 09:53:08;;;;;;;1.92;1.40;;;10.30;1.00;;;;;;5187656;28;20026;-72
2023/05/18 09:55:48;;;;;;;1.73;1.42;;;10.30;1.00;;;;;;5157339;28;20042;-72
2023/05/18 09:58:19;;;;;;;1.98;1.70;;;10.30;1.00;;;;;;5171479;28;20037;-72
2023/05/18 10:00:59;;;;;;;2.08;1.58;;;10.30;1.00;;;;;;5174173;28;20021;-72
2023/05/18 10:03:36;;;;;;;4.50;1.83;;;10.30;1.00;;;;;;5188879;28;20299;-72
2023/05/18 10:06:12;;;;;;;7.53;1.92;;;10.30;1.00;;;;;;5147156;28;20054;-72
2023/05/18 10:08:44;;;;;;;1.77;1.48;;;10.30;1.00;;;;;;5173172;28;20022;-72
2023/05/18 10:11:18;;;;;;;3.40;1.90;;;10.40;1.00;;;;;;5151128;28;20034;-74
2023/05/18 10:13:59;;;;;;;5.68;2.22;;;10.40;1.00;;;;;;5189767;28;20031;-72
2023/05/18 10:16:31;;;;;;;3.35;2.38;;;10.40;1.00;;;;;;5188732;28;20036;-73
2023/05/18 10:19:10;;;;;;;1.70;1.60;;;10.40;1.00;;;;;;5162303;28;20033;-72
2023/05/18 10:21:49;;;;;;;4.57;1.73;;;10.50;1.00;;;;;;5190717;28;20025;-72
2023/05/18 10:24:22;;;;;;;3.17;1.80;;;10.70;1.00;;;;;;5190280;28;20021;-73
2023/05/18 10:27:00;;;;;;;2.85;2.35;;;10.60;1.00;;;;;;5190668;28;20229;-73
2023/05/18 10:29:32;;;;;;;3.40;1.52;;;10.50;1.00;;;;;;5189356;28;20025;-73
2023/05/18 10:32:11;;;;;;;2.67;1.40;;;10.60;1.00;;;;;;5169343;28;20497;-73
2023/05/18 10:34:46;;;;;;;3.22;1.38;;;10.50;1.00;;;;;;5187798;28;20021;-73
2023/05/18 10:37:21;;;;;;;4.63;2.13;;;10.50;1.00;;;;;;5173382;28;20055;-73
2023/05/18 10:39:53;;;;;;;;;;;10.60;1.00;;;;;;5180378;28;20018;-73
2023/05/18 10:42:28;;;;;;;4.40;1.92;;;10.70;1.00;;;;;;5187623;28;20102;-73
2023/05/18 10:45:07;;;;;;;2.20;1.70;;;10.70;1.00;;;;;;5171927;28;20139;-73
2023/05/18 10:47:41;;;;;;;2.88;1.90;;;10.60;1.00;;;;;;5153835;28;20025;-75
2023/05/18 10:50:15;;;;;;;2.63;1.88;;;10.70;99.90;;;;;;5171466;28;20330;-72
2023/05/18 10:52:50;;;;;;;2.45;2.05;;;10.70;1.00;;;;;;5191341;28;20037;-72
2023/05/18 10:55:22;;;;;;;2.28;2.03;;;10.90;99.90;;;;;;5172845;28;20044;-72
2023/05/18 10:57:58;;;;;;;1.98;1.85;;;10.80;99.90;;;;;;5170633;28;20037;-73
2023/05/18 11:00:37;;;;;;;6.55;2.80;;;10.70;99.90;;;;;;5179412;28;20028;-73
2023/05/18 11:03:12;;;;;;;3.35;1.90;;;10.80;99.90;;;;;;5172953;28;20156;-73
2023/05/18 11:06:01;;;;;;;5.07;1.42;;;10.80;99.90;;;;;;5180084;28;20045;-73
2023/05/18 11:08:33;;;;;;;2.40;1.70;;;10.80;99.90;;;;;;5175007;28;20226;-73
2023/05/18 11:11:08;;;;;;;5.43;2.20;;;10.70;99.90;;;;;;5170083;28;20040;-73
2023/05/18 11:13:47;;;;;;;3.22;1.88;;;10.80;99.90;;;;;;5172516;28;20036;-73
2023/05/18 11:16:35;;;;;;;2.63;1.63;;;10.90;99.90;;;;;;5170463;28;20067;-73
2023/05/18 11:19:14;;;;;;;3.67;1.73;;;10.80;99.90;;;;;;5173223;28;20306;-73
2023/05/18 11:21:46;;;;;;;3.75;1.55;;;11.00;99.90;;;;;;5189378;28;20035;-75
2023/05/18 11:24:42;;;;;;;2.58;1.55;;;11.10;99.90;;;;;;5172928;28;20039;-73
2023/05/18 11:27:18;;;;;;;1.50;1.35;;;10.90;99.90;;;;;;5172590;28;20024;-74
2023/05/18 11:29:52;;;;;;;4.28;1.77;;;11.00;99.90;;;;;;5156725;28;20040;-73
2023/05/18 11:32:32;;;;;;;3.03;1.77;;;11.00;99.90;;;;;;5147071;28;20306;-72
2023/05/18 11:35:09;;;;;;;2.38;1.85;;;11.00;99.90;;;;;;5161673;28;20061;-73
2023/05/18 11:37:41;;;;;;;3.53;1.25;;;10.90;99.90;;;;;;5170245;28;20026;-73
2023/05/18 11:40:53;;;;;;;2.45;1.70;;;11.00;99.90;;;;;;5170288;28;20025;-74
2023/05/18 11:43:27;;;;;;;3.25;1.65;;;11.10;99.90;;;;;;5190065;28;20218;-75
2023/05/18 11:46:00;;;;;;;3.85;1.70;;;11.30;74.10;;;;;;5189384;28;20040;-73
2023/05/18 11:48:42;;;;;;;3.47;2.53;;;11.30;1.00;;;;;;5191888;28;20029;-75
2023/05/18 11:51:14;;;;;;;4.70;1.95;;;11.30;1.00;;;;;;5186809;28;20270;-74
2023/05/18 11:53:47;;;;;;;2.30;1.67;;;11.40;1.00;;;;;;5189770;28;20048;-72
2023/05/18 11:56:25;;;;;;;4.50;1.67;;;11.40;1.00;;;;;;5189271;28;20030;-74
2023/05/18 11:59:13;;;;;;;2.30;2.10;;;11.60;30.60;;;;;;5167116;28;20042;-73
2023/05/18 12:01:47;;;;;;;6.68;1.60;;;11.50;1.00;;;;;;5180861;28;20411;-73
2023/05/18 12:04:18;;;;;;;;;;;11.50;1.00;;;;;;5161446;28;20055;-73
2023/05/18 12:06:53;;;;;;;3.72;1.30;;;11.60;1.00;;;;;;5175380;28;19931;-73
2023/05/18 12:09:25;;;;;;;2.42;1.45;;;11.50;16.70;;;;;;5175064;28;20026;-73
2023/05/18 12:12:01;;;;;;;2.28;1.60;;;11.60;1.00;;;;;;5188721;28;20021;-73
2023/05/18 12:14:41;;;;;;;3.22;1.73;;;11.60;1.00;;;;;;5190601;28;20025;-73
2023/05/18 12:17:12;;;;;;;2.47;1.55;;;11.60;1.00;;;;;;5171488;28;20064;-73
2023/05/18 12:19:50;;;;;;;2.75;2.03;;;11.60;5.30;;;;;;5174201;28;20048;-73
2023/05/18 12:22:25;;;;;;;5.13;2.25;;;11.60;1.00;;;;;;5161750;28;20042;-73
2023/05/18 12:24:57;;;;;;;3.03;2.38;;;11.60;1.00;;;;;;5173398;28;20034;-73
2023/05/18 12:27:32;;;;;;;2.15;1.95;;;11.70;1.00;;;;;;5181935;28;20017;-73
2023/05/18 12:30:04;;;;;;;2.45;1.67;;;11.70;1.00;;;;;;5172280;28;20044;-74
2023/05/18 12:32:37;;;;;;;2.75;1.77;;;11.70;1.00;;;;;;5171675;28;20535;-73
2023/05/18 12:35:09;;;;;;;2.20;1.98;;;11.70;1.00;;;;;;5190231;28;20444;-73
2023/05/18 12:37:45;;;;;;;3.22;1.73;;;11.80;1.00;;;;;;5176526;28;20039;-73
2023/05/18 12:40:19;;;;;;;5.18;1.50;;;11.80;11.30;;;;;;5186978;28;20364;-73
2023/05/18 12:43:01;;;;;;;3.70;2.17;;;11.80;1.00;;;;;;5154943;28;20034;-73
2023/05/18 12:45:33;;;;;;;2.38;1.77;;;12.00;1.00;;;;;;5162356;28;20109;-73
2023/05/18 12:48:17;;;;;;;3.47;2.10;;;11.90;1.00;;;;;;5193190;28;20264;-73
2023/05/18 12:50:54;;;;;;;5.45;2.00;;;11.80;1.00;;;;;;5190079;28;20025;-74
2023/05/18 12:53:42;;;;;;;3.50;1.80;;;11.90;11.60;;;;;;5176418;28;20033;-74
2023/05/18 12:56:15;;;;;;;3.88;1.48;;;11.90;1.00;;;;;;5191617;28;20026;-74
2023/05/18 12:58:57;;;;;;;5.40;2.13;;;11.90;1.00;;;;;;5170787;28;20239;-74
2023/05/18 13:01:40;;;;;;;2.13;1.95;;;11.90;1.00;;;;;;5187691;28;20060;-75
2023/05/18 13:04:17;;;;;;;2.47;1.92;;;11.90;64.50;;;;;;5166343;28;20033;-72
2023/05/18 13:06:51;;;;;;;2.70;1.70;;;12.00;1.00;;;;;;5144910;28;20037;-75
2023/05/18 13:09:27;;;;;;;3.33;2.40;;;12.10;1.00;;;;;;5177158;28;20033;-72
2023/05/18 13:12:02;;;;;;;5.57;2.00;;;12.20;1.00;;;;;;5161417;28;20035;-75
2023/05/18 13:14:37;;;;;;;2.20;1.90;;;12.30;1.00;;;;;;5193915;28;20440;-75
2023/05/18 13:17:08;;;;;;;1.75;1.35;;;12.50;1.00;;;;;;5192018;28;20045;-72
2023/05/18 13:19:40;;;;;;;5.55;2.40;;;12.40;1.00;;;;;;5158652;28;20041;-75
2023/05/18 13:22:15;;;;;;;1.70;1.50;;;12.30;1.00;;;;;;5177337;28;20025;-73
2023/05/18 13:24:46;;;;;;;3.33;2.17;;;12.40;1.00;;;;;;5177481;28;20051;-72
2023/05/18 13:27:17;;;;;;;2.30;1.83;;;12.30;1.00;;;;;;5176018;28;20030;-73
2023/05/18 13:29:48;;;;;;;2.60;2.10;;;12.40;1.00;;;;;;5174837;28;20033;-72
2023/05/18 13:32:22;;;;;;;3.28;2.25;;;12.40;1.00;;;;;;5191321;28;20021;-73
2023/05/18 13:34:55;;;;;;;1.98;1.60;;;12.50;1.00;;;;;;5175426;28;20040;-74
2023/05/18 13:37:27;;;;;;;2.88;2.55;;;12.50;1.00;;;;;;5194093;28;20037;-74
2023/05/18 13:39:58;;;;;;;2.47;1.75;;;12.40;1.00;;;;;;5170059;28;20044;-72
2023/05/18 13:42:35;;;;;;;3.45;1.77;;;12.40;1.00;;;;;;5157827;28;20044;-74
2023/05/18 13:45:07;;;;;;;5.13;1.50;;;12.40;1.00;;;;;;5174302;28;20037;-72